Granex 2 — YP3264 — position and weather

sailwx.info

Track history (hours):
 
Tides and Currents Weather Stations Pressure Air Temp Water Temp Dewpoint Dewpoint Depression Visibility Wind Speed Wind Dir Waves Ship Positions

Granex 2

Last reported at 2018-Jan-01 14:28 UTC. Time now 2018-Jan-20 19:24 UTC.
Position N 48°13' E 016°25'.
Warning: this ship's position is 19 days out of date.

Length 85 m; draft 2 m.

Type: Ship. MMSI: 264163264.

Date/timePositionNaut miles runAvg speedWind from/ knotsBaromVisibWave heightAir tempDewpointWater temp
2018-Jan-01 14:28N 48°13' E 016°25'0 0.2
2018-Jan-01 14:00N 48°13' E 016°25'3 4.0
2018-Jan-01 13:21N 48°11' E 016°28'1 1.5
2018-Jan-01 12:40N 48°10' E 016°29'15 0.6
2017-Dec-31 10:41N 48°07' E 016°51'0 2.3
2017-Dec-31 10:30N 48°08' E 016°51'1 3.0
2017-Dec-31 10:00N 48°08' E 016°53'2 3.1
2017-Dec-31 09:31N 48°09' E 016°55'2 3.2
2017-Dec-31 09:00N 48°10' E 016°57'0 0.9
2017-Dec-31 08:30N 48°10' E 016°57'1 1.8
2017-Dec-31 07:58N 48°10' E 016°59'1 2.1
2017-Dec-31 07:30N 48°10' E 016°60'2 3.3
2017-Dec-31 07:01N 48°08' E 017°02'2 3.2
2017-Dec-31 06:30N 48°09' E 017°04'2 3.4
2017-Dec-31 06:01N 48°08' E 017°07'2 3.5
2017-Dec-31 05:31N 48°07' E 017°09'2 3.7
2017-Dec-31 05:00N 48°05' E 017°09'0 0.3
2017-Dec-31 04:31N 48°05' E 017°09'0 0.0
2017-Dec-31 04:00N 48°05' E 017°09'0 0.0
2017-Dec-31 03:30N 48°05' E 017°09'0 0.0
2017-Dec-31 03:01N 48°05' E 017°09'0 0.0
2017-Dec-31 02:31N 48°05' E 017°09'0 0.0
2017-Dec-31 02:00N 48°05' E 017°09'0 0.0
2017-Dec-31 01:30N 48°05' E 017°09'0 0.0
2017-Dec-31 01:00N 48°05' E 017°09'0 0.0
2017-Dec-31 00:30N 48°05' E 017°09'0 0.0
2017-Dec-31 00:00N 48°05' E 017°09'0 0.0
2017-Dec-30 23:30N 48°05' E 017°09'0 0.0
2017-Dec-30 23:00N 48°05' E 017°09'0 0.0
2017-Dec-30 22:31N 48°05' E 017°09'0 0.0
2017-Dec-30 22:00N 48°05' E 017°09'0 0.0
2017-Dec-30 21:30N 48°05' E 017°09'0 0.0
2017-Dec-30 21:00N 48°05' E 017°09'0 0.0
2017-Dec-30 20:30N 48°05' E 017°09'0 0.0
2017-Dec-30 20:01N 48°05' E 017°09'0 0.0
2017-Dec-30 19:31N 48°05' E 017°09'0 0.0
2017-Dec-30 19:01N 48°05' E 017°09'0 0.0
2017-Dec-30 18:31N 48°05' E 017°09'0 0.0
2017-Dec-30 18:01N 48°05' E 017°09'0 0.0
2017-Dec-30 17:31N 48°05' E 017°09'0 0.0
2017-Dec-30 17:01N 48°05' E 017°09'0 0.0
2017-Dec-30 16:31N 48°05' E 017°09'1 2.4
2017-Dec-30 16:00N 48°04' E 017°10'3 5.9
2017-Dec-30 15:31N 48°02' E 017°13'3 6.3
2017-Dec-30 15:00N 48°00' E 017°17'3 7.0
2017-Dec-30 14:31N 47°60' E 017°22'3 6.9
2017-Dec-30 14:01N 47°57' E 017°26'4 7.3
2017-Dec-30 13:30N 47°55' E 017°30'3 5.1
2017-Dec-30 13:01N 47°53' E 017°32'0 0.4
2017-Dec-30 12:23N 47°53' E 017°33'3 6.5
2017-Dec-30 12:00N 47°51' E 017°35'3 5.7
2017-Dec-30 11:28N 47°48' E 017°38'61 2.2
2017-Dec-29 08:05N 47°37' E 019°06'1 5.8
2017-Dec-29 07:53N 47°36' E 019°06'2 5.4
2017-Dec-29 07:30N 47°35' E 019°04'3 5.1
2017-Dec-29 07:00N 47°32' E 019°03'2 4.7
2017-Dec-29 06:30N 47°30' E 019°03'2 4.4
2017-Dec-29 06:00N 47°28' E 019°04'2 3.4
2017-Dec-29 05:30N 47°26' E 019°03'0 0.0
2017-Dec-29 04:59N 47°26' E 019°03'0 0.0
2017-Dec-29 04:30N 47°26' E 019°03'0 0.0
2017-Dec-29 04:00N 47°26' E 019°03'0 0.0
2017-Dec-29 03:30N 47°26' E 019°03'0 0.0
2017-Dec-29 03:00N 47°26' E 019°03'0 0.0
2017-Dec-29 02:30N 47°26' E 019°03'0 0.0
2017-Dec-29 02:00N 47°26' E 019°03'0 0.0
2017-Dec-29 01:30N 47°26' E 019°03'0 0.0
2017-Dec-29 00:59N 47°26' E 019°03'0 0.0
2017-Dec-29 00:30N 47°26' E 019°03'0 0.0
2017-Dec-29 00:00N 47°26' E 019°03'0 0.0
2017-Dec-28 23:30N 47°26' E 019°03'0 0.0
2017-Dec-28 23:00N 47°26' E 019°03'0 0.0
2017-Dec-28 22:31N 47°26' E 019°03'0 0.0
2017-Dec-28 21:59N 47°26' E 019°03'0 0.0
2017-Dec-28 21:30N 47°26' E 019°03'0 0.0
2017-Dec-28 21:00N 47°26' E 019°03'0 0.0
2017-Dec-28 20:30N 47°26' E 019°03'0 0.0
2017-Dec-28 20:00N 47°26' E 019°03'0 0.0
2017-Dec-28 19:30N 47°26' E 019°03'0 0.0
2017-Dec-28 19:00N 47°26' E 019°03'0 0.0
2017-Dec-28 18:30N 47°26' E 019°03'1 1.3
2017-Dec-28 18:00N 47°25' E 019°03'2 4.3
2017-Dec-28 17:30N 47°23' E 019°01'4 4.5
2017-Dec-28 16:37N 47°21' E 018°57'4 4.2
2017-Dec-28 15:39N 47°17' E 018°55'  
Track history (hours):
 
Tides and Currents Weather Stations Pressure Air Temp Water Temp Dewpoint Dewpoint Depression Visibility Wind Speed Wind Dir Waves Ship Positions

Granex 2

Last reported at 2018-Jan-01 14:28 UTC. Time now 2018-Jan-20 19:24 UTC.
Position N 48°13' E 016°25'.
Warning: this ship's position is 19 days out of date.

Length 85 m; draft 2 m.

Type: Ship. MMSI: 264163264.

Date/timePositionNaut miles runAvg speedWind from/ knotsBaromVisibWave heightAir tempDewpointWater temp
2018-Jan-01 14:28N 48°13' E 016°25'0 0.2
2018-Jan-01 14:00N 48°13' E 016°25'3 4.0
2018-Jan-01 13:21N 48°11' E 016°28'1 1.5
2018-Jan-01 12:40N 48°10' E 016°29'15 0.6
2017-Dec-31 10:41N 48°07' E 016°51'0 2.3
2017-Dec-31 10:30N 48°08' E 016°51'1 3.0
2017-Dec-31 10:00N 48°08' E 016°53'2 3.1
2017-Dec-31 09:31N 48°09' E 016°55'2 3.2
2017-Dec-31 09:00N 48°10' E 016°57'0 0.9
2017-Dec-31 08:30N 48°10' E 016°57'1 1.8
2017-Dec-31 07:58N 48°10' E 016°59'1 2.1
2017-Dec-31 07:30N 48°10' E 016°60'2 3.3
2017-Dec-31 07:01N 48°08' E 017°02'2 3.2
2017-Dec-31 06:30N 48°09' E 017°04'2 3.4
2017-Dec-31 06:01N 48°08' E 017°07'2 3.5
2017-Dec-31 05:31N 48°07' E 017°09'2 3.7
2017-Dec-31 05:00N 48°05' E 017°09'0 0.3
2017-Dec-31 04:31N 48°05' E 017°09'0 0.0
2017-Dec-31 04:00N 48°05' E 017°09'0 0.0
2017-Dec-31 03:30N 48°05' E 017°09'0 0.0
2017-Dec-31 03:01N 48°05' E 017°09'0 0.0
2017-Dec-31 02:31N 48°05' E 017°09'0 0.0
2017-Dec-31 02:00N 48°05' E 017°09'0 0.0
2017-Dec-31 01:30N 48°05' E 017°09'0 0.0
2017-Dec-31 01:00N 48°05' E 017°09'0 0.0
2017-Dec-31 00:30N 48°05' E 017°09'0 0.0
2017-Dec-31 00:00N 48°05' E 017°09'0 0.0
2017-Dec-30 23:30N 48°05' E 017°09'0 0.0
2017-Dec-30 23:00N 48°05' E 017°09'0 0.0
2017-Dec-30 22:31N 48°05' E 017°09'0 0.0
2017-Dec-30 22:00N 48°05' E 017°09'0 0.0
2017-Dec-30 21:30N 48°05' E 017°09'0 0.0
2017-Dec-30 21:00N 48°05' E 017°09'0 0.0
2017-Dec-30 20:30N 48°05' E 017°09'0 0.0
2017-Dec-30 20:01N 48°05' E 017°09'0 0.0
2017-Dec-30 19:31N 48°05' E 017°09'0 0.0
2017-Dec-30 19:01N 48°05' E 017°09'0 0.0
2017-Dec-30 18:31N 48°05' E 017°09'0 0.0
2017-Dec-30 18:01N 48°05' E 017°09'0 0.0
2017-Dec-30 17:31N 48°05' E 017°09'0 0.0
2017-Dec-30 17:01N 48°05' E 017°09'0 0.0
2017-Dec-30 16:31N 48°05' E 017°09'1 2.4
2017-Dec-30 16:00N 48°04' E 017°10'3 5.9
2017-Dec-30 15:31N 48°02' E 017°13'3 6.3
2017-Dec-30 15:00N 48°00' E 017°17'3 7.0
2017-Dec-30 14:31N 47°60' E 017°22'3 6.9
2017-Dec-30 14:01N 47°57' E 017°26'4 7.3
2017-Dec-30 13:30N 47°55' E 017°30'3 5.1
2017-Dec-30 13:01N 47°53' E 017°32'0 0.4
2017-Dec-30 12:23N 47°53' E 017°33'3 6.5
2017-Dec-30 12:00N 47°51' E 017°35'3 5.7
2017-Dec-30 11:28N 47°48' E 017°38'61 2.2
2017-Dec-29 08:05N 47°37' E 019°06'1 5.8
2017-Dec-29 07:53N 47°36' E 019°06'2 5.4
2017-Dec-29 07:30N 47°35' E 019°04'3 5.1
2017-Dec-29 07:00N 47°32' E 019°03'2 4.7
2017-Dec-29 06:30N 47°30' E 019°03'2 4.4
2017-Dec-29 06:00N 47°28' E 019°04'2 3.4
2017-Dec-29 05:30N 47°26' E 019°03'0 0.0
2017-Dec-29 04:59N 47°26' E 019°03'0 0.0
2017-Dec-29 04:30N 47°26' E 019°03'0 0.0
2017-Dec-29 04:00N 47°26' E 019°03'0 0.0
2017-Dec-29 03:30N 47°26' E 019°03'0 0.0
2017-Dec-29 03:00N 47°26' E 019°03'0 0.0
2017-Dec-29 02:30N 47°26' E 019°03'0 0.0
2017-Dec-29 02:00N 47°26' E 019°03'0 0.0
2017-Dec-29 01:30N 47°26' E 019°03'0 0.0
2017-Dec-29 00:59N 47°26' E 019°03'0 0.0
2017-Dec-29 00:30N 47°26' E 019°03'0 0.0
2017-Dec-29 00:00N 47°26' E 019°03'0 0.0
2017-Dec-28 23:30N 47°26' E 019°03'0 0.0
2017-Dec-28 23:00N 47°26' E 019°03'0 0.0
2017-Dec-28 22:31N 47°26' E 019°03'0 0.0
2017-Dec-28 21:59N 47°26' E 019°03'0 0.0
2017-Dec-28 21:30N 47°26' E 019°03'0 0.0
2017-Dec-28 21:00N 47°26' E 019°03'0 0.0
2017-Dec-28 20:30N 47°26' E 019°03'0 0.0
2017-Dec-28 20:00N 47°26' E 019°03'0 0.0
2017-Dec-28 19:30N 47°26' E 019°03'0 0.0
2017-Dec-28 19:00N 47°26' E 019°03'0 0.0
2017-Dec-28 18:30N 47°26' E 019°03'1 1.3
2017-Dec-28 18:00N 47°25' E 019°03'2 4.3
2017-Dec-28 17:30N 47°23' E 019°01'4 4.5
2017-Dec-28 16:37N 47°21' E 018°57'4 4.2
2017-Dec-28 15:39N 47°17' E 018°55'  

Dump ship's entire track history